sensor_id;sensor_type;location;lat;lon;timestamp;pressure;altitude;pressure_sealevel;temperature;humidity
45275;BME280;31019;43.780;25.948;2023-05-23T00:02:22;100828.88;;;11.21;100.00
45275;BME280;31019;43.780;25.948;2023-05-23T00:04:50;100833.38;;;11.28;100.00
45275;BME280;31019;43.780;25.948;2023-05-23T00:07:22;100840.13;;;11.23;100.00
45275;BME280;31019;43.780;25.948;2023-05-23T00:09:50;100847.28;;;11.10;100.00
45275;BME280;31019;43.780;25.948;2023-05-23T00:12:17;100843.22;;;11.00;100.00
45275;BME280;31019;43.780;25.948;2023-05-23T00:14:44;100845.88;;;10.94;100.00
45275;BME280;31019;43.780;25.948;2023-05-23T00:17:12;100846.47;;;10.49;100.00
45275;BME280;31019;43.780;25.948;2023-05-23T00:19:39;100841.59;;;10.53;100.00
45275;BME280;31019;43.780;25.948;2023-05-23T00:22:07;100837.28;;;10.52;100.00
45275;BME280;31019;43.780;25.948;2023-05-23T00:24:35;100838.31;;;10.51;100.00
45275;BME280;31019;43.780;25.948;2023-05-23T00:27:02;100838.94;;;10.93;100.00
45275;BME280;31019;43.780;25.948;2023-05-23T00:29:29;100834.63;;;11.12;100.00
45275;BME280;31019;43.780;25.948;2023-05-23T00:31:56;100840.75;;;11.19;100.00
45275;BME280;31019;43.780;25.948;2023-05-23T00:34:23;100835.25;;;11.14;100.00
45275;BME280;31019;43.780;25.948;2023-05-23T00:36:49;100843.19;;;11.07;100.00
45275;BME280;31019;43.780;25.948;2023-05-23T00:39:18;100852.22;;;11.06;100.00
45275;BME280;31019;43.780;25.948;2023-05-23T00:41:45;100843.22;;;11.14;100.00
45275;BME280;31019;43.780;25.948;2023-05-23T00:44:13;100851.78;;;11.16;100.00
45275;BME280;31019;43.780;25.948;2023-05-23T00:46:42;100849.38;;;11.08;100.00
45275;BME280;31019;43.780;25.948;2023-05-23T00:49:11;100863.66;;;11.00;100.00
45275;BME280;31019;43.780;25.948;2023-05-23T00:51:39;100850.38;;;10.87;100.00
45275;BME280;31019;43.780;25.948;2023-05-23T00:54:07;100842.59;;;10.85;100.00
45275;BME280;31019;43.780;25.948;2023-05-23T00:56:37;100847.72;;;10.87;100.00
45275;BME280;31019;43.780;25.948;2023-05-23T00:59:05;100837.28;;;10.52;100.00
45275;BME280;31019;43.780;25.948;2023-05-23T01:01:33;100848.13;;;10.77;100.00
45275;BME280;31019;43.780;25.948;2023-05-23T01:04:01;100845.66;;;10.82;100.00
45275;BME280;31019;43.780;25.948;2023-05-23T01:06:28;100840.78;;;10.79;100.00
45275;BME280;31019;43.780;25.948;2023-05-23T01:08:57;100845.66;;;10.49;100.00
45275;BME280;31019;43.780;25.948;2023-05-23T01:11:31;100846.09;;;10.66;100.00
45275;BME280;31019;43.780;25.948;2023-05-23T01:14:06;100838.94;;;10.66;100.00
45275;BME280;31019;43.780;25.948;2023-05-23T01:16:46;100853.03;;;10.67;100.00
45275;BME280;31019;43.780;25.948;2023-05-23T01:19:31;100838.75;;;10.74;100.00
45275;BME280;31019;43.780;25.948;2023-05-23T01:22:11;100846.72;;;10.74;100.00
45275;BME280;31019;43.780;25.948;2023-05-23T01:24:48;100845.84;;;10.47;100.00
45275;BME280;31019;43.780;25.948;2023-05-23T01:27:25;100838.31;;;10.58;100.00
45275;BME280;31019;43.780;25.948;2023-05-23T01:29:57;100848.16;;;10.84;100.00
45275;BME280;31019;43.780;25.948;2023-05-23T01:32:31;100846.09;;;10.72;100.00
45275;BME280;31019;43.780;25.948;2023-05-23T01:34:58;100841.81;;;10.78;100.00
45275;BME280;31019;43.780;25.948;2023-05-23T01:37:26;100840.38;;;10.62;100.00
45275;BME280;31019;43.780;25.948;2023-05-23T01:39:54;100843.78;;;10.36;100.00
45275;BME280;31019;43.780;25.948;2023-05-23T01:42:21;100847.25;;;10.37;100.00
45275;BME280;31019;43.780;25.948;2023-05-23T01:44:48;100846.09;;;10.66;100.00
45275;BME280;31019;43.780;25.948;2023-05-23T01:47:17;100845.47;;;10.57;100.00
45275;BME280;31019;43.780;25.948;2023-05-23T01:49:44;100849.56;;;10.53;100.00
45275;BME280;31019;43.780;25.948;2023-05-23T01:52:13;100844.41;;;10.38;100.00
45275;BME280;31019;43.780;25.948;2023-05-23T01:54:40;100849.34;;;10.61;100.00
45275;BME280;31019;43.780;25.948;2023-05-23T01:57:08;100847.31;;;10.57;100.00
45275;BME280;31019;43.780;25.948;2023-05-23T01:59:36;100847.91;;;10.59;100.00
45275;BME280;31019;43.780;25.948;2023-05-23T02:02:03;100847.31;;;10.50;100.00
45275;BME280;31019;43.780;25.948;2023-05-23T02:04:33;100848.69;;;10.39;100.00
45275;BME280;31019;43.780;25.948;2023-05-23T02:07:01;100852.16;;;10.40;100.00
45275;BME280;31019;43.780;25.948;2023-05-23T02:09:28;100841.34;;;10.41;100.00
45275;BME280;31019;43.780;25.948;2023-05-23T02:11:55;100848.06;;;10.44;100.00
45275;BME280;31019;43.780;25.948;2023-05-23T02:14:22;100847.25;;;10.37;100.00
45275;BME280;31019;43.780;25.948;2023-05-23T02:16:51;100851.84;;;10.08;100.00
45275;BME280;31019;43.780;25.948;2023-05-23T02:19:18;100852.13;;;9.72;100.00
45275;BME280;31019;43.780;25.948;2023-05-23T02:21:46;100860.41;;;10.03;100.00
45275;BME280;31019;43.780;25.948;2023-05-23T02:24:13;100855.44;;;10.35;100.00
45275;BME280;31019;43.780;25.948;2023-05-23T02:26:40;100859.09;;;9.86;100.00
45275;BME280;31019;43.780;25.948;2023-05-23T02:29:07;100856.94;;;10.03;100.00
45275;BME280;31019;43.780;25.948;2023-05-23T02:31:34;100858.81;;;9.68;100.00
45275;BME280;31019;43.780;25.948;2023-05-23T02:34:02;100854.38;;;9.40;100.00
45275;BME280;31019;43.780;25.948;2023-05-23T02:36:28;100844.03;;;9.93;100.00
45275;BME280;31019;43.780;25.948;2023-05-23T02:38:59;100851.84;;;10.08;100.00
45275;BME280;31019;43.780;25.948;2023-05-23T02:41:25;100849.38;;;10.00;100.00
45275;BME280;31019;43.780;25.948;2023-05-23T02:43:52;100858.22;;;10.14;100.00
45275;BME280;31019;43.780;25.948;2023-05-23T02:46:20;100844.31;;;9.63;100.00
45275;BME280;31019;43.780;25.948;2023-05-23T02:48:47;100854.41;;;9.88;100.00
45275;BME280;31019;43.780;25.948;2023-05-23T02:51:13;100855.88;;;9.91;100.00
45275;BME280;31019;43.780;25.948;2023-05-23T02:53:40;100856.84;;;9.42;100.00
45275;BME280;31019;43.780;25.948;2023-05-23T02:56:09;100860.03;;;9.30;100.00
45275;BME280;31019;43.780;25.948;2023-05-23T02:58:37;100871.94;;;9.13;100.00
45275;BME280;31019;43.780;25.948;2023-05-23T03:01:05;100869.50;;;9.46;100.00
45275;BME280;31019;43.780;25.948;2023-05-23T03:03:33;100869.31;;;9.89;100.00
45275;BME280;31019;43.780;25.948;2023-05-23T03:06:01;100868.50;;;9.89;100.00
45275;BME280;31019;43.780;25.948;2023-05-23T03:08:29;100876.66;;;9.87;100.00
45275;BME280;31019;43.780;25.948;2023-05-23T03:10:56;100879.72;;;9.84;100.00
45275;BME280;31019;43.780;25.948;2023-05-23T03:13:25;100877.34;;;10.02;100.00
45275;BME280;31019;43.780;25.948;2023-05-23T03:15:55;100879.00;;;10.10;100.00
45275;BME280;31019;43.780;25.948;2023-05-23T03:18:22;100885.09;;;10.04;100.00
45275;BME280;31019;43.780;25.948;2023-05-23T03:20:49;100880.03;;;10.16;100.00
45275;BME280;31019;43.780;25.948;2023-05-23T03:23:15;100874.72;;;10.16;100.00
45275;BME280;31019;43.780;25.948;2023-05-23T03:25:42;100880.34;;;10.41;100.00
45275;BME280;31019;43.780;25.948;2023-05-23T03:28:09;100884.66;;;10.42;100.00
45275;BME280;31019;43.780;25.948;2023-05-23T03:30:37;100890.56;;;10.37;100.00
45275;BME280;31019;43.780;25.948;2023-05-23T03:33:05;100883.09;;;10.13;100.00
45275;BME280;31019;43.780;25.948;2023-05-23T03:35:32;100883.03;;;10.54;100.00
45275;BME280;31019;43.780;25.948;2023-05-23T03:37:59;100892.44;;;10.57;100.00
45275;BME280;31019;43.780;25.948;2023-05-23T03:40:26;100895.72;;;10.59;100.00
45275;BME280;31019;43.780;25.948;2023-05-23T03:43:01;100902.28;;;10.76;100.00
45275;BME280;31019;43.780;25.948;2023-05-23T03:45:29;100906.31;;;10.52;100.00
45275;BME280;31019;43.780;25.948;2023-05-23T03:47:57;100902.50;;;10.88;100.00
45275;BME280;31019;43.780;25.948;2023-05-23T03:50:24;100907.41;;;10.91;100.00
45275;BME280;31019;43.780;25.948;2023-05-23T03:52:51;100902.50;;;11.01;100.00
45275;BME280;31019;43.780;25.948;2023-05-23T03:55:18;100904.38;;;11.14;100.00
45275;BME280;31019;43.780;25.948;2023-05-23T03:57:46;100899.03;;;10.94;100.00
45275;BME280;31019;43.780;25.948;2023-05-23T04:00:14;100895.56;;;11.27;100.00
45275;BME280;31019;43.780;25.948;2023-05-23T04:02:41;100901.88;;;11.39;100.00
45275;BME280;31019;43.780;25.948;2023-05-23T04:05:09;100898.81;;;11.35;100.00
45275;BME280;31019;43.780;25.948;2023-05-23T04:07:37;100900.88;;;11.33;100.00
45275;BME280;31019;43.780;25.948;2023-05-23T04:10:07;100908.25;;;11.18;100.00
45275;BME280;31019;43.780;25.948;2023-05-23T04:12:34;100911.50;;;11.27;100.00
45275;BME280;31019;43.780;25.948;2023-05-23T04:15:07;100907.81;;;11.28;100.00
45275;BME280;31019;43.780;25.948;2023-05-23T04:17:37;100911.91;;;11.37;100.00
45275;BME280;31019;43.780;25.948;2023-05-23T04:20:06;100917.41;;;11.49;100.00
45275;BME280;31019;43.780;25.948;2023-05-23T04:22:35;100922.34;;;11.45;100.00
45275;BME280;31019;43.780;25.948;2023-05-23T04:25:02;100915.97;;;11.59;100.00
45275;BME280;31019;43.780;25.948;2023-05-23T04:27:29;100922.97;;;11.47;100.00
45275;BME280;31019;43.780;25.948;2023-05-23T04:29:56;100917.59;;;11.60;100.00
45275;BME280;31019;43.780;25.948;2023-05-23T04:32:25;100928.63;;;11.77;100.00
45275;BME280;31019;43.780;25.948;2023-05-23T04:34:52;100915.31;;;11.84;100.00
45275;BME280;31019;43.780;25.948;2023-05-23T04:37:18;100926.78;;;11.64;100.00
45275;BME280;31019;43.780;25.948;2023-05-23T04:39:51;100922.50;;;11.63;100.00
45275;BME280;31019;43.780;25.948;2023-05-23T04:42:21;100931.69;;;11.81;100.00
45275;BME280;31019;43.780;25.948;2023-05-23T04:44:49;100937.63;;;11.76;100.00
45275;BME280;31019;43.780;25.948;2023-05-23T04:47:15;100932.09;;;11.91;100.00
45275;BME280;31019;43.780;25.948;2023-05-23T04:49:43;100930.63;;;11.95;100.00
45275;BME280;31019;43.780;25.948;2023-05-23T04:52:10;100940.19;;;12.23;100.00
45275;BME280;31019;43.780;25.948;2023-05-23T04:54:37;100928.88;;;12.27;100.00
45275;BME280;31019;43.780;25.948;2023-05-23T04:57:10;100934.75;;;12.43;100.00
45275;BME280;31019;43.780;25.948;2023-05-23T04:59:37;100928.34;;;12.57;100.00
45275;BME280;31019;43.780;25.948;2023-05-23T05:02:07;100924.56;;;12.71;100.00
45275;BME280;31019;43.780;25.948;2023-05-23T05:04:34;100929.72;;;12.66;100.00
45275;BME280;31019;43.780;25.948;2023-05-23T05:07:01;100935.47;;;12.95;100.00
45275;BME280;31019;43.780;25.948;2023-05-23T05:09:28;100942.06;;;12.92;100.00
45275;BME280;31019;43.780;25.948;2023-05-23T05:11:56;100936.38;;;13.07;100.00
45275;BME280;31019;43.780;25.948;2023-05-23T05:14:25;100936.69;;;13.24;100.00
45275;BME280;31019;43.780;25.948;2023-05-23T05:16:52;100926.44;;;13.46;100.00
45275;BME280;31019;43.780;25.948;2023-05-23T05:19:22;100926.91;;;13.61;100.00
45275;BME280;31019;43.780;25.948;2023-05-23T05:21:48;100915.16;;;13.69;100.00
45275;BME280;31019;43.780;25.948;2023-05-23T05:24:15;100912.31;;;13.82;100.00
45275;BME280;31019;43.780;25.948;2023-05-23T05:26:45;100907.16;;;13.87;100.00
45275;BME280;31019;43.780;25.948;2023-05-23T05:29:12;100910.34;;;13.78;100.00
45275;BME280;31019;43.780;25.948;2023-05-23T05:31:40;100915.41;;;14.16;100.00
45275;BME280;31019;43.780;25.948;2023-05-23T05:34:09;100913.47;;;14.41;100.00
45275;BME280;31019;43.780;25.948;2023-05-23T05:36:37;100898.38;;;14.77;100.00
45275;BME280;31019;43.780;25.948;2023-05-23T05:39:10;100912.97;;;15.05;100.00
45275;BME280;31019;43.780;25.948;2023-05-23T05:41:37;100911.53;;;14.91;100.00
45275;BME280;31019;43.780;25.948;2023-05-23T05:44:08;100930.44;;;15.19;100.00
45275;BME280;31019;43.780;25.948;2023-05-23T05:46:35;100915.78;;;15.57;100.00
45275;BME280;31019;43.780;25.948;2023-05-23T05:49:03;100919.75;;;15.78;100.00
45275;BME280;31019;43.780;25.948;2023-05-23T05:51:30;100928.03;;;15.76;100.00
45275;BME280;31019;43.780;25.948;2023-05-23T05:53:57;100919.16;;;15.76;100.00
45275;BME280;31019;43.780;25.948;2023-05-23T05:56:24;100924.03;;;15.91;100.00
45275;BME280;31019;43.780;25.948;2023-05-23T05:58:52;100922.34;;;16.13;100.00
45275;BME280;31019;43.780;25.948;2023-05-23T06:01:19;100918.75;;;16.36;100.00
45275;BME280;31019;43.780;25.948;2023-05-23T06:03:46;100920.69;;;16.53;100.00
45275;BME280;31019;43.780;25.948;2023-05-23T06:06:14;100913.34;;;16.48;100.00
45275;BME280;31019;43.780;25.948;2023-05-23T06:08:41;100921.34;;;17.05;100.00
45275;BME280;31019;43.780;25.948;2023-05-23T06:11:08;100923.13;;;17.00;100.00
45275;BME280;31019;43.780;25.948;2023-05-23T06:13:36;100922.47;;;16.92;100.00
45275;BME280;31019;43.780;25.948;2023-05-23T06:16:03;100927.94;;;17.31;100.00
45275;BME280;31019;43.780;25.948;2023-05-23T06:18:31;100923.09;;;17.50;100.00
45275;BME280;31019;43.780;25.948;2023-05-23T06:20:57;100921.22;;;17.51;100.00
45275;BME280;31019;43.780;25.948;2023-05-23T06:23:26;100916.38;;;17.70;100.00
45275;BME280;31019;43.780;25.948;2023-05-23T06:25:53;100912.63;;;17.88;100.00
45275;BME280;31019;43.780;25.948;2023-05-23T06:28:19;100916.94;;;18.11;100.00
45275;BME280;31019;43.780;25.948;2023-05-23T06:30:46;100908.63;;;17.90;100.00
45275;BME280;31019;43.780;25.948;2023-05-23T06:33:14;100915.94;;;17.95;100.00
45275;BME280;31019;43.780;25.948;2023-05-23T06:35:41;100906.34;;;18.26;100.00
45275;BME280;31019;43.780;25.948;2023-05-23T06:38:08;100903.97;;;18.29;100.00
45275;BME280;31019;43.780;25.948;2023-05-23T06:40:36;100897.94;;;18.44;100.00
45275;BME280;31019;43.780;25.948;2023-05-23T06:43:03;100903.09;;;18.51;100.00
45275;BME280;31019;43.780;25.948;2023-05-23T06:45:30;100904.38;;;18.70;100.00
45275;BME280;31019;43.780;25.948;2023-05-23T06:47:59;100896.72;;;18.84;100.00
45275;BME280;31019;43.780;25.948;2023-05-23T06:50:26;100892.75;;;19.29;100.00
45275;BME280;31019;43.780;25.948;2023-05-23T06:52:53;100892.06;;;19.49;100.00
45275;BME280;31019;43.780;25.948;2023-05-23T06:55:21;100893.34;;;19.41;100.00
45275;BME280;31019;43.780;25.948;2023-05-23T06:57:49;100890.63;;;19.31;100.00
45275;BME280;31019;43.780;25.948;2023-05-23T07:00:17;100883.47;;;19.57;100.00
45275;BME280;31019;43.780;25.948;2023-05-23T07:02:44;100887.19;;;19.46;100.00
45275;BME280;31019;43.780;25.948;2023-05-23T07:05:13;100883.66;;;19.40;100.00
45275;BME280;31019;43.780;25.948;2023-05-23T07:07:40;100884.72;;;19.87;100.00
45275;BME280;31019;43.780;25.948;2023-05-23T07:10:08;100875.44;;;20.46;100.00
45275;BME280;31019;43.780;25.948;2023-05-23T07:12:35;100876.84;;;20.58;100.00
45275;BME280;31019;43.780;25.948;2023-05-23T07:15:03;100872.75;;;20.51;100.00
45275;BME280;31019;43.780;25.948;2023-05-23T07:17:30;100866.28;;;20.36;100.00
45275;BME280;31019;43.780;25.948;2023-05-23T07:19:57;100860.53;;;20.07;100.00
45275;BME280;31019;43.780;25.948;2023-05-23T07:22:24;100866.06;;;19.75;100.00
45275;BME280;31019;43.780;25.948;2023-05-23T07:24:51;100870.72;;;19.90;100.00
45275;BME280;31019;43.780;25.948;2023-05-23T07:27:18;100855.47;;;20.31;100.00
45275;BME280;31019;43.780;25.948;2023-05-23T07:29:45;100862.50;;;20.48;100.00
45275;BME280;31019;43.780;25.948;2023-05-23T07:32:13;100872.25;;;20.79;100.00
45275;BME280;31019;43.780;25.948;2023-05-23T07:34:40;100865.22;;;20.84;100.00
45275;BME280;31019;43.780;25.948;2023-05-23T07:37:07;100869.50;;;21.31;100.00
45275;BME280;31019;43.780;25.948;2023-05-23T07:39:37;100865.78;;;20.80;100.00
45275;BME280;31019;43.780;25.948;2023-05-23T07:42:04;100868.44;;;21.11;100.00
45275;BME280;31019;43.780;25.948;2023-05-23T07:44:31;100861.41;;;21.20;100.00
45275;BME280;31019;43.780;25.948;2023-05-23T07:46:58;100867.91;;;21.19;100.00
45275;BME280;31019;43.780;25.948;2023-05-23T07:49:26;100868.94;;;21.44;100.00
45275;BME280;31019;43.780;25.948;2023-05-23T07:51:53;100860.06;;;21.18;100.00
45275;BME280;31019;43.780;25.948;2023-05-23T07:54:20;100864.41;;;21.19;100.00
45275;BME280;31019;43.780;25.948;2023-05-23T07:56:47;100856.84;;;21.05;100.00
45275;BME280;31019;43.780;25.948;2023-05-23T07:59:14;100865.50;;;20.97;100.00
45275;BME280;31019;43.780;25.948;2023-05-23T08:01:41;100861.03;;;21.73;100.00
45275;BME280;31019;43.780;25.948;2023-05-23T08:04:09;100856.03;;;21.10;100.00
45275;BME280;31019;43.780;25.948;2023-05-23T08:06:37;100863.31;;;21.10;100.00
45275;BME280;31019;43.780;25.948;2023-05-23T08:09:05;100859.41;;;21.67;100.00
45275;BME280;31019;43.780;25.948;2023-05-23T08:11:32;100858.88;;;21.70;100.00
45275;BME280;31019;43.780;25.948;2023-05-23T08:13:59;100854.50;;;21.79;100.00
45275;BME280;31019;43.780;25.948;2023-05-23T08:16:26;100852.38;;;21.71;100.00
45275;BME280;31019;43.780;25.948;2023-05-23T08:18:53;100848.56;;;22.27;100.00
45275;BME280;31019;43.780;25.948;2023-05-23T08:21:21;100853.81;;;22.52;100.00
45275;BME280;31019;43.780;25.948;2023-05-23T08:23:49;100837.84;;;22.51;100.00
45275;BME280;31019;43.780;25.948;2023-05-23T08:26:16;100844.28;;;22.21;100.00
45275;BME280;31019;43.780;25.948;2023-05-23T08:28:43;100832.63;;;22.59;100.00
45275;BME280;31019;43.780;25.948;2023-05-23T08:31:10;100833.19;;;21.72;100.00
45275;BME280;31019;43.780;25.948;2023-05-23T08:33:37;100829.13;;;22.59;100.00
45275;BME280;31019;43.780;25.948;2023-05-23T08:36:06;100822.94;;;22.53;100.00
45275;BME280;31019;43.780;25.948;2023-05-23T08:38:33;100827.22;;;22.25;100.00
45275;BME280;31019;43.780;25.948;2023-05-23T08:41:12;100818.88;;;23.14;100.00
45275;BME280;31019;43.780;25.948;2023-05-23T08:43:41;100823.91;;;23.26;100.00
45275;BME280;31019;43.780;25.948;2023-05-23T08:46:08;100822.72;;;23.08;100.00
45275;BME280;31019;43.780;25.948;2023-05-23T08:48:37;100825.72;;;22.77;100.00
45275;BME280;31019;43.780;25.948;2023-05-23T08:51:06;100815.53;;;22.93;100.00
45275;BME280;31019;43.780;25.948;2023-05-23T08:53:35;100819.28;;;23.26;100.00
45275;BME280;31019;43.780;25.948;2023-05-23T08:56:05;100813.75;;;23.37;100.00
45275;BME280;31019;43.780;25.948;2023-05-23T08:58:33;100822.66;;;22.84;100.00
45275;BME280;31019;43.780;25.948;2023-05-23T09:01:01;100821.53;;;23.43;100.00
45275;BME280;31019;43.780;25.948;2023-05-23T09:03:28;100814.41;;;22.70;100.00
45275;BME280;31019;43.780;25.948;2023-05-23T09:05:55;100820.69;;;23.24;100.00
45275;BME280;31019;43.780;25.948;2023-05-23T09:08:23;100811.84;;;22.55;100.00
45275;BME280;31019;43.780;25.948;2023-05-23T09:10:50;100811.56;;;23.15;100.00
45275;BME280;31019;43.780;25.948;2023-05-23T09:13:19;100806.06;;;22.67;100.00
45275;BME280;31019;43.780;25.948;2023-05-23T09:15:56;100805.47;;;23.28;100.00
45275;BME280;31019;43.780;25.948;2023-05-23T09:18:24;100811.72;;;23.71;100.00
45275;BME280;31019;43.780;25.948;2023-05-23T09:20:51;100786.97;;;23.54;100.00
45275;BME280;31019;43.780;25.948;2023-05-23T09:23:18;100804.28;;;23.82;100.00
45275;BME280;31019;43.780;25.948;2023-05-23T09:25:46;100801.03;;;24.18;100.00
45275;BME280;31019;43.780;25.948;2023-05-23T09:28:13;100802.00;;;23.65;100.00
45275;BME280;31019;43.780;25.948;2023-05-23T09:30:41;100805.56;;;23.18;100.00
45275;BME280;31019;43.780;25.948;2023-05-23T09:33:08;100793.63;;;24.05;100.00
45275;BME280;31019;43.780;25.948;2023-05-23T09:35:42;100795.53;;;23.85;100.00
45275;BME280;31019;43.780;25.948;2023-05-23T09:38:10;100787.59;;;24.08;100.00
45275;BME280;31019;43.780;25.948;2023-05-23T09:40:37;100784.88;;;24.27;100.00
45275;BME280;31019;43.780;25.948;2023-05-23T09:43:10;100780.00;;;24.10;100.00
45275;BME280;31019;43.780;25.948;2023-05-23T09:45:37;100785.59;;;24.32;100.00
45275;BME280;31019;43.780;25.948;2023-05-23T09:48:10;100793.03;;;24.45;100.00
45275;BME280;31019;43.780;25.948;2023-05-23T09:50:38;100788.16;;;24.75;100.00
45275;BME280;31019;43.780;25.948;2023-05-23T09:53:06;100786.75;;;23.50;100.00
45275;BME280;31019;43.780;25.948;2023-05-23T09:55:32;100776.63;;;23.99;100.00
45275;BME280;31019;43.780;25.948;2023-05-23T09:58:00;100790.94;;;24.56;100.00
45275;BME280;31019;43.780;25.948;2023-05-23T10:00:28;100777.97;;;25.27;100.00
45275;BME280;31019;43.780;25.948;2023-05-23T10:03:08;100777.34;;;25.03;100.00
45275;BME280;31019;43.780;25.948;2023-05-23T10:05:40;100781.47;;;24.54;100.00
45275;BME280;31019;43.780;25.948;2023-05-23T10:08:15;100781.38;;;24.45;100.00
45275;BME280;31019;43.780;25.948;2023-05-23T10:14:00;100775.44;;;24.57;100.00
45275;BME280;31019;43.780;25.948;2023-05-23T10:16:33;100771.63;;;24.58;100.00
45275;BME280;31019;43.780;25.948;2023-05-23T10:19:11;100774.03;;;24.59;100.00
45275;BME280;31019;43.780;25.948;2023-05-23T10:21:43;100774.78;;;24.13;100.00
45275;BME280;31019;43.780;25.948;2023-05-23T10:24:13;100778.06;;;24.48;100.00
45275;BME280;31019;43.780;25.948;2023-05-23T10:26:40;100766.72;;;24.41;100.00
45275;BME280;31019;43.780;25.948;2023-05-23T10:29:09;100768.09;;;25.18;100.00
45275;BME280;31019;43.780;25.948;2023-05-23T10:31:36;100760.28;;;25.66;100.00
45275;BME280;31019;43.780;25.948;2023-05-23T10:34:16;100769.09;;;24.48;100.00
45275;BME280;31019;43.780;25.948;2023-05-23T10:36:54;100768.47;;;24.97;100.00
45275;BME280;31019;43.780;25.948;2023-05-23T10:39:30;100769.38;;;25.06;100.00
45275;BME280;31019;43.780;25.948;2023-05-23T10:42:03;100757.34;;;24.00;100.00
45275;BME280;31019;43.780;25.948;2023-05-23T10:44:33;100748.34;;;25.26;100.00
45275;BME280;31019;43.780;25.948;2023-05-23T10:47:00;100750.66;;;25.05;100.00
45275;BME280;31019;43.780;25.948;2023-05-23T10:49:41;100747.84;;;25.51;100.00
45275;BME280;31019;43.780;25.948;2023-05-23T10:52:09;100751.88;;;25.26;100.00
45275;BME280;31019;43.780;25.948;2023-05-23T10:54:42;100754.06;;;25.38;100.00
45275;BME280;31019;43.780;25.948;2023-05-23T10:57:10;100740.50;;;24.69;100.00
45275;BME280;31019;43.780;25.948;2023-05-23T10:59:38;100733.13;;;25.75;100.00
45275;BME280;31019;43.780;25.948;2023-05-23T11:02:11;100739.63;;;26.01;100.00
45275;BME280;31019;43.780;25.948;2023-05-23T11:04:41;100731.09;;;25.94;100.00
45275;BME280;31019;43.780;25.948;2023-05-23T11:07:29;100739.13;;;25.27;100.00
45275;BME280;31019;43.780;25.948;2023-05-23T11:10:04;100735.84;;;25.52;100.00
45275;BME280;31019;43.780;25.948;2023-05-23T11:12:38;100735.59;;;25.63;100.00
45275;BME280;31019;43.780;25.948;2023-05-23T11:15:18;100738.78;;;25.42;100.00
45275;BME280;31019;43.780;25.948;2023-05-23T11:17:50;100733.16;;;25.25;100.00
45275;BME280;31019;43.780;25.948;2023-05-23T11:20:20;100731.94;;;23.96;100.00
45275;BME280;31019;43.780;25.948;2023-05-23T11:22:59;100740.06;;;23.77;100.00
45275;BME280;31019;43.780;25.948;2023-05-23T11:25:40;100731.72;;;24.58;100.00
45275;BME280;31019;43.780;25.948;2023-05-23T11:28:07;100731.22;;;26.12;100.00
45275;BME280;31019;43.780;25.948;2023-05-23T11:30:38;100732.84;;;25.12;100.00
45275;BME280;31019;43.780;25.948;2023-05-23T11:33:09;100734.94;;;25.43;100.00
45275;BME280;31019;43.780;25.948;2023-05-23T11:35:40;100733.97;;;25.25;100.00
45275;BME280;31019;43.780;25.948;2023-05-23T11:38:08;100725.94;;;25.56;100.00
45275;BME280;31019;43.780;25.948;2023-05-23T11:40:36;100721.47;;;26.42;100.00
45275;BME280;31019;43.780;25.948;2023-05-23T11:43:04;100727.22;;;24.81;100.00
45275;BME280;31019;43.780;25.948;2023-05-23T11:45:33;100722.06;;;24.66;100.00
45275;BME280;31019;43.780;25.948;2023-05-23T11:48:10;100714.22;;;24.92;100.00
45275;BME280;31019;43.780;25.948;2023-05-23T11:50:48;100714.22;;;26.60;100.00
45275;BME280;31019;43.780;25.948;2023-05-23T11:53:17;100703.44;;;26.23;100.00
45275;BME280;31019;43.780;25.948;2023-05-23T11:55:49;100699.72;;;26.19;97.46
45275;BME280;31019;43.780;25.948;2023-05-23T11:58:17;100691.94;;;26.26;100.00
45275;BME280;31019;43.780;25.948;2023-05-23T12:00:44;100697.88;;;25.84;100.00
45275;BME280;31019;43.780;25.948;2023-05-23T12:03:12;100707.41;;;25.08;100.00
45275;BME280;31019;43.780;25.948;2023-05-23T12:05:42;100699.53;;;24.93;95.38
45275;BME280;31019;43.780;25.948;2023-05-23T12:08:11;100694.25;;;25.52;97.56
45275;BME280;31019;43.780;25.948;2023-05-23T12:10:48;100697.13;;;25.19;100.00
45275;BME280;31019;43.780;25.948;2023-05-23T12:13:15;100699.44;;;25.26;100.00
45275;BME280;31019;43.780;25.948;2023-05-23T12:15:42;100700.13;;;25.31;100.00
45275;BME280;31019;43.780;25.948;2023-05-23T12:18:11;100687.16;;;24.59;100.00
45275;BME280;31019;43.780;25.948;2023-05-23T12:20:39;100684.16;;;25.30;89.66
45275;BME280;31019;43.780;25.948;2023-05-23T12:23:06;100682.94;;;24.95;100.00
45275;BME280;31019;43.780;25.948;2023-05-23T12:25:39;100686.16;;;24.09;100.00
45275;BME280;31019;43.780;25.948;2023-05-23T12:28:06;100682.94;;;24.67;100.00
45275;BME280;31019;43.780;25.948;2023-05-23T12:30:40;100680.53;;;24.93;100.00
45275;BME280;31019;43.780;25.948;2023-05-23T12:33:08;100681.06;;;24.35;95.09
45275;BME280;31019;43.780;25.948;2023-05-23T12:35:36;100666.41;;;24.36;83.88
45275;BME280;31019;43.780;25.948;2023-05-23T12:38:05;100658.19;;;24.96;98.04
45275;BME280;31019;43.780;25.948;2023-05-23T12:40:33;100659.00;;;25.47;89.28
45275;BME280;31019;43.780;25.948;2023-05-23T12:43:08;100662.72;;;24.87;100.00